sensor_id;sensor_type;location;lat;lon;timestamp;pressure;altitude;pressure_sealevel;temperature;humidity
3444;BME280;1736;52.068;6.968;2022-10-16T00:01:06;100529.34;;;11.56;100.00
3444;BME280;1736;52.068;6.968;2022-10-16T00:03:33;100534.94;;;11.53;100.00
3444;BME280;1736;52.068;6.968;2022-10-16T00:06:00;100533.53;;;11.49;100.00
3444;BME280;1736;52.068;6.968;2022-10-16T00:08:27;100527.53;;;11.47;100.00
3444;BME280;1736;52.068;6.968;2022-10-16T00:10:59;100526.53;;;11.48;100.00
3444;BME280;1736;52.068;6.968;2022-10-16T00:13:28;100531.84;;;11.48;100.00
3444;BME280;1736;52.068;6.968;2022-10-16T00:15:55;100523.06;;;11.47;100.00
3444;BME280;1736;52.068;6.968;2022-10-16T00:18:22;100528.63;;;11.35;100.00
3444;BME280;1736;52.068;6.968;2022-10-16T00:20:49;100528.22;;;11.30;100.00
3444;BME280;1736;52.068;6.968;2022-10-16T00:23:16;100525.94;;;11.25;100.00
3444;BME280;1736;52.068;6.968;2022-10-16T00:25:42;100531.81;;;11.29;100.00
3444;BME280;1736;52.068;6.968;2022-10-16T00:28:09;100540.75;;;11.28;100.00
3444;BME280;1736;52.068;6.968;2022-10-16T00:30:38;100540.47;;;11.21;100.00
3444;BME280;1736;52.068;6.968;2022-10-16T00:33:05;100531.00;;;11.28;100.00
3444;BME280;1736;52.068;6.968;2022-10-16T00:35:31;100542.19;;;11.32;100.00
3444;BME280;1736;52.068;6.968;2022-10-16T00:37:58;100527.91;;;11.23;100.00
3444;BME280;1736;52.068;6.968;2022-10-16T00:40:24;100530.13;;;11.28;100.00
3444;BME280;1736;52.068;6.968;2022-10-16T00:42:51;100526.38;;;11.30;100.00
3444;BME280;1736;52.068;6.968;2022-10-16T00:45:17;100534.63;;;11.27;100.00
3444;BME280;1736;52.068;6.968;2022-10-16T00:47:54;100524.13;;;11.26;100.00
3444;BME280;1736;52.068;6.968;2022-10-16T00:50:24;100531.13;;;11.27;100.00
3444;BME280;1736;52.068;6.968;2022-10-16T00:52:53;100527.75;;;11.25;100.00
3444;BME280;1736;52.068;6.968;2022-10-16T00:55:21;100533.88;;;11.16;100.00
3444;BME280;1736;52.068;6.968;2022-10-16T00:57:48;100528.69;;;11.14;100.00
3444;BME280;1736;52.068;6.968;2022-10-16T01:00:18;100529.41;;;11.16;100.00
3444;BME280;1736;52.068;6.968;2022-10-16T01:02:52;100529.00;;;11.11;100.00
3444;BME280;1736;52.068;6.968;2022-10-16T01:05:21;100524.97;;;11.17;100.00
3444;BME280;1736;52.068;6.968;2022-10-16T01:07:56;100530.09;;;11.18;100.00
3444;BME280;1736;52.068;6.968;2022-10-16T01:10:30;100534.59;;;11.18;100.00
3444;BME280;1736;52.068;6.968;2022-10-16T01:13:03;100539.06;;;11.17;100.00
3444;BME280;1736;52.068;6.968;2022-10-16T01:25:52;100525.66;;;11.19;100.00
3444;BME280;1736;52.068;6.968;2022-10-16T01:28:27;100518.25;;;11.13;100.00
3444;BME280;1736;52.068;6.968;2022-10-16T01:30:58;100527.91;;;11.23;100.00
3444;BME280;1736;52.068;6.968;2022-10-16T01:33:38;100528.34;;;11.28;100.00
3444;BME280;1736;52.068;6.968;2022-10-16T01:36:10;100524.00;;;11.27;100.00
3444;BME280;1736;52.068;6.968;2022-10-16T01:38:39;100524.81;;;11.28;100.00
3444;BME280;1736;52.068;6.968;2022-10-16T01:41:09;100526.78;;;11.26;100.00
3444;BME280;1736;52.068;6.968;2022-10-16T01:43:40;100529.44;;;11.26;100.00
3444;BME280;1736;52.068;6.968;2022-10-16T01:46:08;100529.59;;;11.24;100.00
3444;BME280;1736;52.068;6.968;2022-10-16T01:48:36;100513.09;;;11.21;100.00
3444;BME280;1736;52.068;6.968;2022-10-16T01:51:05;100518.09;;;11.24;100.00
3444;BME280;1736;52.068;6.968;2022-10-16T01:53:33;100505.53;;;11.26;100.00
3444;BME280;1736;52.068;6.968;2022-10-16T01:56:01;100516.16;;;11.26;100.00
3444;BME280;1736;52.068;6.968;2022-10-16T01:58:33;100513.09;;;11.21;100.00
3444;BME280;1736;52.068;6.968;2022-10-16T02:01:04;100524.97;;;11.17;100.00
3444;BME280;1736;52.068;6.968;2022-10-16T02:03:34;100518.06;;;11.14;100.00
3444;BME280;1736;52.068;6.968;2022-10-16T02:06:02;100526.22;;;11.32;100.00
3444;BME280;1736;52.068;6.968;2022-10-16T02:08:30;100529.44;;;11.26;100.00
3444;BME280;1736;52.068;6.968;2022-10-16T02:10:58;100524.41;;;11.23;100.00
3444;BME280;1736;52.068;6.968;2022-10-16T02:13:29;100528.72;;;11.24;100.00
3444;BME280;1736;52.068;6.968;2022-10-16T02:15:57;100523.97;;;11.18;100.00
3444;BME280;1736;52.068;6.968;2022-10-16T02:18:26;100526.22;;;11.13;100.00
3444;BME280;1736;52.068;6.968;2022-10-16T02:20:59;100543.84;;;11.33;100.00
3444;BME280;1736;52.068;6.968;2022-10-16T02:23:35;100543.44;;;11.37;100.00
3444;BME280;1736;52.068;6.968;2022-10-16T02:26:06;100534.09;;;11.43;100.00
3444;BME280;1736;52.068;6.968;2022-10-16T02:28:38;100526.28;;;11.51;100.00
3444;BME280;1736;52.068;6.968;2022-10-16T02:31:09;100538.03;;;11.58;100.00
3444;BME280;1736;52.068;6.968;2022-10-16T02:33:40;100531.75;;;11.59;100.00
3444;BME280;1736;52.068;6.968;2022-10-16T02:36:08;100537.66;;;11.62;100.00
3444;BME280;1736;52.068;6.968;2022-10-16T02:38:36;100545.63;;;11.62;100.00
3444;BME280;1736;52.068;6.968;2022-10-16T02:41:04;100549.00;;;11.74;100.00
3444;BME280;1736;52.068;6.968;2022-10-16T02:43:30;100541.72;;;11.76;100.00
3444;BME280;1736;52.068;6.968;2022-10-16T02:45:58;100544.22;;;11.68;100.00
3444;BME280;1736;52.068;6.968;2022-10-16T02:48:25;100547.16;;;11.74;100.00
3444;BME280;1736;52.068;6.968;2022-10-16T02:50:52;100549.41;;;11.79;100.00
3444;BME280;1736;52.068;6.968;2022-10-16T02:53:19;100550.81;;;11.73;100.00
3444;BME280;1736;52.068;6.968;2022-10-16T02:55:45;100548.84;;;11.75;100.00
3444;BME280;1736;52.068;6.968;2022-10-16T02:58:12;100549.28;;;11.80;100.00
3444;BME280;1736;52.068;6.968;2022-10-16T03:00:38;100532.34;;;11.81;100.00
3444;BME280;1736;52.068;6.968;2022-10-16T03:03:05;100532.75;;;11.77;100.00
3444;BME280;1736;52.068;6.968;2022-10-16T03:05:31;100532.22;;;11.83;100.00
3444;BME280;1736;52.068;6.968;2022-10-16T03:07:59;100527.44;;;11.77;100.00
3444;BME280;1736;52.068;6.968;2022-10-16T03:10:26;100524.78;;;11.77;100.00
3444;BME280;1736;52.068;6.968;2022-10-16T03:12:53;100535.28;;;11.69;100.00
3444;BME280;1736;52.068;6.968;2022-10-16T03:15:19;100543.53;;;11.66;100.00
3444;BME280;1736;52.068;6.968;2022-10-16T03:17:46;100548.16;;;11.73;100.00
3444;BME280;1736;52.068;6.968;2022-10-16T03:20:12;100549.16;;;11.72;100.00
3444;BME280;1736;52.068;6.968;2022-10-16T03:22:39;100554.75;;;11.79;100.00
3444;BME280;1736;52.068;6.968;2022-10-16T03:25:07;100548.44;;;11.80;100.00
3444;BME280;1736;52.068;6.968;2022-10-16T03:27:34;100548.84;;;11.85;100.00
3444;BME280;1736;52.068;6.968;2022-10-16T03:30:00;100546.50;;;11.82;100.00
3444;BME280;1736;52.068;6.968;2022-10-16T03:32:27;100536.13;;;11.79;100.00
3444;BME280;1736;52.068;6.968;2022-10-16T03:34:53;100531.94;;;11.76;100.00
3444;BME280;1736;52.068;6.968;2022-10-16T03:37:21;100541.84;;;11.65;100.00
3444;BME280;1736;52.068;6.968;2022-10-16T03:39:48;100545.75;;;11.61;100.00
3444;BME280;1736;52.068;6.968;2022-10-16T03:42:16;100546.03;;;11.58;100.00
3444;BME280;1736;52.068;6.968;2022-10-16T03:44:42;100543.09;;;11.61;100.00
3444;BME280;1736;52.068;6.968;2022-10-16T03:47:09;100542.78;;;11.54;100.00
3444;BME280;1736;52.068;6.968;2022-10-16T03:49:35;100537.31;;;11.46;100.00
3444;BME280;1736;52.068;6.968;2022-10-16T03:52:02;100541.09;;;11.44;100.00
3444;BME280;1736;52.068;6.968;2022-10-16T03:54:35;100548.13;;;11.64;100.00
3444;BME280;1736;52.068;6.968;2022-10-16T03:57:16;100549.00;;;11.64;100.00
3444;BME280;1736;52.068;6.968;2022-10-16T03:59:43;100551.06;;;11.61;100.00
3444;BME280;1736;52.068;6.968;2022-10-16T04:02:09;100546.47;;;11.63;100.00
3444;BME280;1736;52.068;6.968;2022-10-16T04:04:36;100558.78;;;11.64;100.00
3444;BME280;1736;52.068;6.968;2022-10-16T04:07:02;100561.03;;;11.68;100.00
3444;BME280;1736;52.068;6.968;2022-10-16T04:09:29;100555.56;;;11.70;100.00
3444;BME280;1736;52.068;6.968;2022-10-16T04:11:55;100557.94;;;11.73;100.00
3444;BME280;1736;52.068;6.968;2022-10-16T04:14:23;100555.72;;;11.68;100.00
3444;BME280;1736;52.068;6.968;2022-10-16T04:16:50;100565.50;;;11.68;100.00
3444;BME280;1736;52.068;6.968;2022-10-16T04:19:17;100558.38;;;11.68;100.00
3444;BME280;1736;52.068;6.968;2022-10-16T04:21:44;100564.50;;;11.69;100.00
3444;BME280;1736;52.068;6.968;2022-10-16T04:24:10;100563.25;;;11.73;100.00
3444;BME280;1736;52.068;6.968;2022-10-16T04:26:37;100582.59;;;11.75;100.00
3444;BME280;1736;52.068;6.968;2022-10-16T04:29:04;100586.50;;;11.71;100.00
3444;BME280;1736;52.068;6.968;2022-10-16T04:31:32;100590.13;;;11.79;100.00
3444;BME280;1736;52.068;6.968;2022-10-16T04:33:59;100594.34;;;11.72;100.00
3444;BME280;1736;52.068;6.968;2022-10-16T04:36:25;100587.34;;;11.81;100.00
3444;BME280;1736;52.068;6.968;2022-10-16T04:38:52;100597.41;;;11.77;100.00
3444;BME280;1736;52.068;6.968;2022-10-16T04:41:18;100592.66;;;11.81;100.00
3444;BME280;1736;52.068;6.968;2022-10-16T04:43:45;100587.91;;;11.75;100.00
3444;BME280;1736;52.068;6.968;2022-10-16T04:46:11;100599.34;;;11.66;100.00
3444;BME280;1736;52.068;6.968;2022-10-16T04:48:39;100588.59;;;11.77;100.00
3444;BME280;1736;52.068;6.968;2022-10-16T04:51:06;100607.88;;;11.69;100.00
3444;BME280;1736;52.068;6.968;2022-10-16T04:53:32;100612.09;;;11.72;100.00
3444;BME280;1736;52.068;6.968;2022-10-16T04:55:59;100615.00;;;11.69;100.00
3444;BME280;1736;52.068;6.968;2022-10-16T04:58:26;100616.72;;;11.79;100.00
3444;BME280;1736;52.068;6.968;2022-10-16T05:00:53;100615.88;;;11.69;100.00
3444;BME280;1736;52.068;6.968;2022-10-16T05:03:19;100618.38;;;11.71;100.00
3444;BME280;1736;52.068;6.968;2022-10-16T05:05:47;100612.94;;;11.72;100.00
3444;BME280;1736;52.068;6.968;2022-10-16T05:08:15;100609.56;;;11.70;100.00
3444;BME280;1736;52.068;6.968;2022-10-16T05:10:42;100617.53;;;11.70;100.00
3444;BME280;1736;52.068;6.968;2022-10-16T05:13:10;100614.59;;;11.64;100.00
3444;BME280;1736;52.068;6.968;2022-10-16T05:15:36;100621.72;;;11.63;100.00
3444;BME280;1736;52.068;6.968;2022-10-16T05:18:03;100625.94;;;11.66;100.00
3444;BME280;1736;52.068;6.968;2022-10-16T05:20:29;100625.78;;;11.67;100.00
3444;BME280;1736;52.068;6.968;2022-10-16T05:22:57;100627.63;;;11.67;100.00
3444;BME280;1736;52.068;6.968;2022-10-16T05:25:24;100629.84;;;11.62;100.00
3444;BME280;1736;52.068;6.968;2022-10-16T05:27:50;100631.53;;;11.63;100.00
3444;BME280;1736;52.068;6.968;2022-10-16T05:30:17;100638.06;;;11.59;100.00
3444;BME280;1736;52.068;6.968;2022-10-16T05:32:46;100644.75;;;11.53;100.00
3444;BME280;1736;52.068;6.968;2022-10-16T05:35:13;100642.38;;;11.60;100.00
3444;BME280;1736;52.068;6.968;2022-10-16T05:37:40;100640.53;;;11.51;100.00
3444;BME280;1736;52.068;6.968;2022-10-16T05:40:09;100648.94;;;11.56;100.00
3444;BME280;1736;52.068;6.968;2022-10-16T05:42:35;100645.56;;;11.44;100.00
3444;BME280;1736;52.068;6.968;2022-10-16T05:45:03;100648.78;;;11.48;100.00
3444;BME280;1736;52.068;6.968;2022-10-16T05:47:29;100652.81;;;11.42;100.00
3444;BME280;1736;52.068;6.968;2022-10-16T05:49:56;100664.47;;;11.51;100.00
3444;BME280;1736;52.068;6.968;2022-10-16T05:52:22;100664.19;;;11.54;100.00
3444;BME280;1736;52.068;6.968;2022-10-16T05:54:49;100667.28;;;11.59;100.00
3444;BME280;1736;52.068;6.968;2022-10-16T05:57:17;100679.59;;;11.60;100.00
3444;BME280;1736;52.068;6.968;2022-10-16T05:59:43;100682.50;;;11.57;100.00
3444;BME280;1736;52.068;6.968;2022-10-16T06:02:12;100686.09;;;11.67;100.00
3444;BME280;1736;52.068;6.968;2022-10-16T06:04:39;100679.84;;;11.57;100.00
3444;BME280;1736;52.068;6.968;2022-10-16T06:07:06;100690.00;;;11.63;100.00
3444;BME280;1736;52.068;6.968;2022-10-16T06:09:32;100695.88;;;11.66;100.00
3444;BME280;1736;52.068;6.968;2022-10-16T06:11:59;100699.19;;;11.59;100.00
3444;BME280;1736;52.068;6.968;2022-10-16T06:14:27;100708.13;;;11.58;100.00
3444;BME280;1736;52.068;6.968;2022-10-16T06:16:53;100701.66;;;11.51;100.00
3444;BME280;1736;52.068;6.968;2022-10-16T06:19:20;100710.06;;;11.56;100.00
3444;BME280;1736;52.068;6.968;2022-10-16T06:21:54;100707.41;;;11.56;100.00
3444;BME280;1736;52.068;6.968;2022-10-16T06:24:23;100705.00;;;11.53;100.00
3444;BME280;1736;52.068;6.968;2022-10-16T06:26:49;100714.09;;;11.50;100.00
3444;BME280;1736;52.068;6.968;2022-10-16T06:29:16;100718.50;;;11.61;100.00
3444;BME280;1736;52.068;6.968;2022-10-16T06:31:44;100723.56;;;11.64;100.00
3444;BME280;1736;52.068;6.968;2022-10-16T06:34:10;100732.19;;;11.56;100.00
3444;BME280;1736;52.068;6.968;2022-10-16T06:36:37;100740.97;;;11.57;100.00
3444;BME280;1736;52.068;6.968;2022-10-16T06:39:04;100739.50;;;11.64;100.00
3444;BME280;1736;52.068;6.968;2022-10-16T06:41:32;100738.81;;;11.62;100.00
3444;BME280;1736;52.068;6.968;2022-10-16T06:43:59;100750.78;;;11.56;100.00
3444;BME280;1736;52.068;6.968;2022-10-16T06:46:26;100752.34;;;11.59;100.00
3444;BME280;1736;52.068;6.968;2022-10-16T06:49:01;100750.88;;;11.66;100.00
3444;BME280;1736;52.068;6.968;2022-10-16T06:51:27;100768.75;;;11.64;100.00
3444;BME280;1736;52.068;6.968;2022-10-16T06:53:55;100774.78;;;11.66;100.00
3444;BME280;1736;52.068;6.968;2022-10-16T06:56:24;100776.97;;;11.61;100.00
3444;BME280;1736;52.068;6.968;2022-10-16T06:58:52;100783.38;;;11.58;100.00
3444;BME280;1736;52.068;6.968;2022-10-16T07:01:20;100798.00;;;11.64;100.00
3444;BME280;1736;52.068;6.968;2022-10-16T07:03:47;100792.66;;;11.64;100.00
3444;BME280;1736;52.068;6.968;2022-10-16T07:06:17;100799.41;;;11.68;100.00
3444;BME280;1736;52.068;6.968;2022-10-16T07:08:46;100812.88;;;11.76;100.00
3444;BME280;1736;52.068;6.968;2022-10-16T07:11:14;100806.06;;;11.83;100.00
3444;BME280;1736;52.068;6.968;2022-10-16T07:13:42;100819.59;;;12.00;100.00
3444;BME280;1736;52.068;6.968;2022-10-16T07:16:10;100804.88;;;12.06;100.00
3444;BME280;1736;52.068;6.968;2022-10-16T07:18:37;100802.72;;;12.30;100.00
3444;BME280;1736;52.068;6.968;2022-10-16T07:21:06;100815.06;;;12.31;100.00
3444;BME280;1736;52.068;6.968;2022-10-16T07:23:35;100817.88;;;12.39;100.00
3444;BME280;1736;52.068;6.968;2022-10-16T07:26:02;100823.78;;;12.52;100.00
3444;BME280;1736;52.068;6.968;2022-10-16T07:28:29;100828.84;;;12.64;100.00
3444;BME280;1736;52.068;6.968;2022-10-16T07:31:00;100838.53;;;12.75;100.00
3444;BME280;1736;52.068;6.968;2022-10-16T07:33:27;100826.91;;;12.85;100.00
3444;BME280;1736;52.068;6.968;2022-10-16T07:35:54;100836.16;;;12.91;100.00
3444;BME280;1736;52.068;6.968;2022-10-16T07:38:21;100832.09;;;12.96;100.00
3444;BME280;1736;52.068;6.968;2022-10-16T07:40:56;100834.25;;;13.02;100.00
3444;BME280;1736;52.068;6.968;2022-10-16T07:43:23;100840.84;;;13.08;100.00
3444;BME280;1736;52.068;6.968;2022-10-16T07:45:50;100847.69;;;13.20;100.00
3444;BME280;1736;52.068;6.968;2022-10-16T07:48:17;100852.47;;;13.26;100.00
3444;BME280;1736;52.068;6.968;2022-10-16T07:50:44;100854.16;;;13.27;100.00
3444;BME280;1736;52.068;6.968;2022-10-16T07:53:11;100851.06;;;13.41;100.00
3444;BME280;1736;52.068;6.968;2022-10-16T07:55:38;100868.16;;;13.48;100.00
3444;BME280;1736;52.068;6.968;2022-10-16T07:58:06;100865.34;;;13.59;100.00
3444;BME280;1736;52.068;6.968;2022-10-16T08:00:33;100870.41;;;13.62;100.00
3444;BME280;1736;52.068;6.968;2022-10-16T08:03:00;100876.84;;;13.69;100.00
3444;BME280;1736;52.068;6.968;2022-10-16T08:05:26;100880.19;;;13.71;100.00
3444;BME280;1736;52.068;6.968;2022-10-16T08:07:53;100879.31;;;13.80;100.00
3444;BME280;1736;52.068;6.968;2022-10-16T08:10:22;100878.78;;;13.86;100.00
3444;BME280;1736;52.068;6.968;2022-10-16T08:12:49;100882.69;;;13.91;100.00
3444;BME280;1736;52.068;6.968;2022-10-16T08:15:17;100888.69;;;14.03;100.00
3444;BME280;1736;52.068;6.968;2022-10-16T08:17:44;100889.06;;;14.08;100.00
3444;BME280;1736;52.068;6.968;2022-10-16T08:20:11;100895.22;;;14.27;100.00
3444;BME280;1736;52.068;6.968;2022-10-16T08:22:37;100903.41;;;14.26;100.00
3444;BME280;1736;52.068;6.968;2022-10-16T08:25:04;100890.44;;;14.31;100.00
3444;BME280;1736;52.068;6.968;2022-10-16T08:27:31;100904.78;;;14.30;99.65
3444;BME280;1736;52.068;6.968;2022-10-16T08:29:57;100911.19;;;14.37;99.49
3444;BME280;1736;52.068;6.968;2022-10-16T08:32:25;100919.31;;;14.45;99.19
3444;BME280;1736;52.068;6.968;2022-10-16T08:34:52;100921.09;;;14.54;98.47
3444;BME280;1736;52.068;6.968;2022-10-16T08:37:18;100925.84;;;14.60;97.79
3444;BME280;1736;52.068;6.968;2022-10-16T08:39:45;100918.38;;;14.63;96.39
3444;BME280;1736;52.068;6.968;2022-10-16T08:42:19;100935.94;;;14.66;96.70
3444;BME280;1736;52.068;6.968;2022-10-16T08:47:58;100932.41;;;14.75;96.27
3444;BME280;1736;52.068;6.968;2022-10-16T08:50:28;100943.91;;;14.75;95.79
3444;BME280;1736;52.068;6.968;2022-10-16T08:52:56;100949.59;;;14.90;94.87
3444;BME280;1736;52.068;6.968;2022-10-16T08:55:30;100954.34;;;14.96;94.70
3444;BME280;1736;52.068;6.968;2022-10-16T08:57:59;100960.69;;;14.95;93.38
3444;BME280;1736;52.068;6.968;2022-10-16T09:00:26;100965.28;;;15.02;93.07
3444;BME280;1736;52.068;6.968;2022-10-16T09:03:00;100963.28;;;15.04;92.91
3444;BME280;1736;52.068;6.968;2022-10-16T09:05:52;100953.25;;;15.16;90.87
3444;BME280;1736;52.068;6.968;2022-10-16T09:08:28;100965.00;;;15.23;91.71
3444;BME280;1736;52.068;6.968;2022-10-16T09:10:59;100963.97;;;15.33;91.44
3444;BME280;1736;52.068;6.968;2022-10-16T09:13:29;100965.59;;;15.44;90.08
3444;BME280;1736;52.068;6.968;2022-10-16T09:16:03;100973.16;;;15.66;89.81
3444;BME280;1736;52.068;6.968;2022-10-16T09:18:42;100979.34;;;15.67;89.31
3444;BME280;1736;52.068;6.968;2022-10-16T09:21:15;100982.25;;;15.73;88.50
3444;BME280;1736;52.068;6.968;2022-10-16T09:23:43;100983.94;;;15.74;89.21
3444;BME280;1736;52.068;6.968;2022-10-16T09:26:11;100976.53;;;15.68;88.76
3444;BME280;1736;52.068;6.968;2022-10-16T09:28:38;100973.78;;;15.60;88.87
3444;BME280;1736;52.068;6.968;2022-10-16T09:31:05;100972.41;;;15.56;88.29
3444;BME280;1736;52.068;6.968;2022-10-16T09:33:33;100989.13;;;15.58;88.99
3444;BME280;1736;52.068;6.968;2022-10-16T09:36:04;100996.56;;;15.64;89.26
3444;BME280;1736;52.068;6.968;2022-10-16T09:38:33;100990.06;;;15.67;88.17
3444;BME280;1736;52.068;6.968;2022-10-16T09:41:02;100993.56;;;15.67;86.90
3444;BME280;1736;52.068;6.968;2022-10-16T09:43:34;101010.06;;;15.80;88.11
3444;BME280;1736;52.068;6.968;2022-10-16T09:46:06;101006.63;;;15.88;87.81
3444;BME280;1736;52.068;6.968;2022-10-16T09:48:37;101017.63;;;16.02;87.72
3444;BME280;1736;52.068;6.968;2022-10-16T09:51:06;101006.16;;;15.92;87.53
3444;BME280;1736;52.068;6.968;2022-10-16T09:53:44;101020.81;;;15.88;86.56
3444;BME280;1736;52.068;6.968;2022-10-16T09:56:20;101019.94;;;15.97;87.28
3444;BME280;1736;52.068;6.968;2022-10-16T09:58:49;101014.44;;;16.24;86.20
3444;BME280;1736;52.068;6.968;2022-10-16T10:01:17;101010.53;;;16.19;83.55
3444;BME280;1736;52.068;6.968;2022-10-16T10:03:44;101009.72;;;16.18;84.71
3444;BME280;1736;52.068;6.968;2022-10-16T10:06:20;101015.00;;;16.10;85.85
3444;BME280;1736;52.068;6.968;2022-10-16T10:08:56;101023.25;;;16.17;85.21
3444;BME280;1736;52.068;6.968;2022-10-16T10:11:46;101021.44;;;16.17;84.00
3444;BME280;1736;52.068;6.968;2022-10-16T10:14:17;101027.09;;;16.14;83.37
3444;BME280;1736;52.068;6.968;2022-10-16T10:16:44;101025.72;;;16.10;82.65
3444;BME280;1736;52.068;6.968;2022-10-16T10:19:14;101027.69;;;16.08;82.84
3444;BME280;1736;52.068;6.968;2022-10-16T10:21:43;101038.34;;;16.00;82.00
3444;BME280;1736;52.068;6.968;2022-10-16T10:24:11;101030.09;;;15.94;83.11
3444;BME280;1736;52.068;6.968;2022-10-16T10:26:39;101046.13;;;15.94;82.22
3444;BME280;1736;52.068;6.968;2022-10-16T10:29:10;101042.59;;;16.11;81.66
3444;BME280;1736;52.068;6.968;2022-10-16T10:31:42;101052.00;;;16.15;81.64
3444;BME280;1736;52.068;6.968;2022-10-16T10:34:22;101048.88;;;16.19;81.23
3444;BME280;1736;52.068;6.968;2022-10-16T10:36:56;101049.38;;;16.40;81.71
3444;BME280;1736;52.068;6.968;2022-10-16T10:39:30;101041.84;;;16.61;80.47
3444;BME280;1736;52.068;6.968;2022-10-16T10:42:11;101046.88;;;16.64;77.53
3444;BME280;1736;52.068;6.968;2022-10-16T10:45:12;101048.91;;;16.62;77.66
3444;BME280;1736;52.068;6.968;2022-10-16T10:47:48;101046.00;;;16.89;79.03
3444;BME280;1736;52.068;6.968;2022-10-16T10:50:23;101041.94;;;16.77;79.10
3444;BME280;1736;52.068;6.968;2022-10-16T10:52:59;101042.47;;;16.81;78.41
3444;BME280;1736;52.068;6.968;2022-10-16T10:55:36;101041.97;;;16.85;78.29
3444;BME280;1736;52.068;6.968;2022-10-16T10:58:19;101045.78;;;17.08;78.13
3444;BME280;1736;52.068;6.968;2022-10-16T11:00:55;101054.47;;;17.02;74.25
3444;BME280;1736;52.068;6.968;2022-10-16T11:03:43;101047.38;;;16.93;73.50
3444;BME280;1736;52.068;6.968;2022-10-16T11:06:17;101056.75;;;16.89;73.52
3444;BME280;1736;52.068;6.968;2022-10-16T11:08:53;101058.81;;;16.70;74.04
3444;BME280;1736;52.068;6.968;2022-10-16T11:11:27;101051.72;;;16.61;73.50
3444;BME280;1736;52.068;6.968;2022-10-16T11:14:00;101059.72;;;16.53;74.14
3444;BME280;1736;52.068;6.968;2022-10-16T11:16:31;101054.88;;;16.56;74.29
3444;BME280;1736;52.068;6.968;2022-10-16T11:19:04;101053.25;;;16.63;73.18
3444;BME280;1736;52.068;6.968;2022-10-16T11:21:41;101056.03;;;16.79;72.77
3444;BME280;1736;52.068;6.968;2022-10-16T11:24:18;101063.09;;;16.88;71.81
3444;BME280;1736;52.068;6.968;2022-10-16T11:26:47;101065.41;;;17.09;72.28
3444;BME280;1736;52.068;6.968;2022-10-16T11:29:19;101052.19;;;17.15;72.16
3444;BME280;1736;52.068;6.968;2022-10-16T11:31:49;101057.16;;;17.10;72.25
3444;BME280;1736;52.068;6.968;2022-10-16T11:34:22;101066.88;;;17.03;72.12
3444;BME280;1736;52.068;6.968;2022-10-16T11:36:57;101075.28;;;17.08;72.75
3444;BME280;1736;52.068;6.968;2022-10-16T11:39:27;101071.75;;;17.08;72.25
3444;BME280;1736;52.068;6.968;2022-10-16T11:41:58;101070.06;;;17.07;70.39
3444;BME280;1736;52.068;6.968;2022-10-16T11:44:35;101070.94;;;17.07;71.67
3444;BME280;1736;52.068;6.968;2022-10-16T11:47:11;101077.56;;;16.95;70.26
3444;BME280;1736;52.068;6.968;2022-10-16T11:49:40;101077.00;;;17.17;70.93
3444;BME280;1736;52.068;6.968;2022-10-16T11:52:12;101076.31;;;17.15;71.17
3444;BME280;1736;52.068;6.968;2022-10-16T11:54:46;101078.84;;;17.17;72.49
3444;BME280;1736;52.068;6.968;2022-10-16T11:57:17;101072.34;;;17.27;69.18
3444;BME280;1736;52.068;6.968;2022-10-16T11:59:49;101076.38;;;17.23;70.62
3444;BME280;1736;52.068;6.968;2022-10-16T12:02:29;101074.34;;;17.25;69.44
3444;BME280;1736;52.068;6.968;2022-10-16T12:05:06;101071.50;;;17.27;70.65
3444;BME280;1736;52.068;6.968;2022-10-16T12:07:40;101077.56;;;17.29;71.15
3444;BME280;1736;52.068;6.968;2022-10-16T12:10:19;101076.53;;;17.22;68.44
3444;BME280;1736;52.068;6.968;2022-10-16T12:12:53;101082.75;;;17.30;68.70
3444;BME280;1736;52.068;6.968;2022-10-16T12:15:22;101100.69;;;17.30;67.57
3444;BME280;1736;52.068;6.968;2022-10-16T12:17:49;101093.09;;;17.17;67.02
3444;BME280;1736;52.068;6.968;2022-10-16T12:20:26;101094.88;;;17.01;67.55
3444;BME280;1736;52.068;6.968;2022-10-16T12:22:54;101092.78;;;16.95;67.91
3444;BME280;1736;52.068;6.968;2022-10-16T12:25:26;101099.31;;;16.92;68.24
3444;BME280;1736;52.068;6.968;2022-10-16T12:27:55;101103.31;;;16.88;69.14
3444;BME280;1736;52.068;6.968;2022-10-16T12:30:23;101105.50;;;16.85;69.17
3444;BME280;1736;52.068;6.968;2022-10-16T12:32:55;101110.19;;;16.91;68.95
3444;BME280;1736;52.068;6.968;2022-10-16T12:35:24;101100.28;;;16.83;69.33
3444;BME280;1736;52.068;6.968;2022-10-16T12:37:52;101102.06;;;17.00;69.82
3444;BME280;1736;52.068;6.968;2022-10-16T12:40:29;101107.09;;;17.03;70.17
3444;BME280;1736;52.068;6.968;2022-10-16T12:42:57;101110.44;;;17.05;69.56
3444;BME280;1736;52.068;6.968;2022-10-16T12:45:28;101106.66;;;17.16;68.88
3444;BME280;1736;52.068;6.968;2022-10-16T12:47:56;101106.72;;;17.32;68.05
3444;BME280;1736;52.068;6.968;2022-10-16T12:50:29;101113.34;;;17.45;67.54
3444;BME280;1736;52.068;6.968;2022-10-16T12:52:57;101118.38;;;17.40;66.02
3444;BME280;1736;52.068;6.968;2022-10-16T12:55:23;101113.81;;;17.41;64.85
3444;BME280;1736;52.068;6.968;2022-10-16T12:58:09;101115.97;;;17.37;63.55
3444;BME280;1736;52.068;6.968;2022-10-16T13:00:44;101125.66;;;17.30;65.96
3444;BME280;1736;52.068;6.968;2022-10-16T13:03:40;101118.63;;;17.29;64.64
3444;BME280;1736;52.068;6.968;2022-10-16T13:06:19;101122.34;;;17.36;63.98
3444;BME280;1736;52.068;6.968;2022-10-16T13:09:13;101115.94;;;17.29;63.93
3444;BME280;1736;52.068;6.968;2022-10-16T13:11:53;101112.28;;;17.38;63.93
3444;BME280;1736;52.068;6.968;2022-10-16T13:14:33;101118.97;;;17.34;63.96
3444;BME280;1736;52.068;6.968;2022-10-16T13:17:06;101125.03;;;17.36;63.60
3444;BME280;1736;52.068;6.968;2022-10-16T13:19:43;101131.22;;;17.37;64.01
3444;BME280;1736;52.068;6.968;2022-10-16T13:22:15;101133.41;;;17.33;64.98
3444;BME280;1736;52.068;6.968;2022-10-16T13:24:53;101129.16;;;17.23;65.76
3444;BME280;1736;52.068;6.968;2022-10-16T13:27:29;101124.31;;;17.26;65.42
3444;BME280;1736;52.068;6.968;2022-10-16T13:30:10;101118.91;;;17.18;66.52
3444;BME280;1736;52.068;6.968;2022-10-16T13:32:38;101135.06;;;17.34;67.38